sensor_id;sensor_type;location;lat;lon;timestamp;temperature;humidity
24017;DHT22;12222;50.090;19.702;2022-07-18T00:02:08;10.30;99.90
24017;DHT22;12222;50.090;19.702;2022-07-18T00:07:29;10.50;99.90
24017;DHT22;12222;50.090;19.702;2022-07-18T00:12:49;10.40;99.90
24017;DHT22;12222;50.090;19.702;2022-07-18T00:18:10;10.50;99.90
24017;DHT22;12222;50.090;19.702;2022-07-18T00:23:31;10.50;99.90
24017;DHT22;12222;50.090;19.702;2022-07-18T00:28:52;10.40;99.90
24017;DHT22;12222;50.090;19.702;2022-07-18T00:34:13;10.20;99.90
24017;DHT22;12222;50.090;19.702;2022-07-18T00:39:33;10.00;99.90
24017;DHT22;12222;50.090;19.702;2022-07-18T00:44:54;10.00;99.90
24017;DHT22;12222;50.090;19.702;2022-07-18T00:50:15;10.20;99.90
24017;DHT22;12222;50.090;19.702;2022-07-18T00:55:44;10.20;99.90
24017;DHT22;12222;50.090;19.702;2022-07-18T01:01:04;9.80;99.90
24017;DHT22;12222;50.090;19.702;2022-07-18T01:06:46;9.70;99.90
24017;DHT22;12222;50.090;19.702;2022-07-18T01:12:07;9.70;99.90
24017;DHT22;12222;50.090;19.702;2022-07-18T01:17:29;9.70;99.90
24017;DHT22;12222;50.090;19.702;2022-07-18T01:22:54;9.70;99.90
24017;DHT22;12222;50.090;19.702;2022-07-18T01:28:14;9.50;99.90
24017;DHT22;12222;50.090;19.702;2022-07-18T01:33:35;9.40;99.90
24017;DHT22;12222;50.090;19.702;2022-07-18T01:38:56;9.40;99.90
24017;DHT22;12222;50.090;19.702;2022-07-18T01:44:16;9.40;99.90
24017;DHT22;12222;50.090;19.702;2022-07-18T01:49:38;9.40;99.90
24017;DHT22;12222;50.090;19.702;2022-07-18T01:54:59;9.30;99.90
24017;DHT22;12222;50.090;19.702;2022-07-18T02:00:20;9.00;99.90
24017;DHT22;12222;50.090;19.702;2022-07-18T02:05:40;8.70;99.90
24017;DHT22;12222;50.090;19.702;2022-07-18T02:11:01;8.80;99.90
24017;DHT22;12222;50.090;19.702;2022-07-18T02:16:21;8.80;99.90
24017;DHT22;12222;50.090;19.702;2022-07-18T02:21:42;8.70;99.90
24017;DHT22;12222;50.090;19.702;2022-07-18T02:27:03;8.70;99.90
24017;DHT22;12222;50.090;19.702;2022-07-18T02:32:24;8.90;99.90
24017;DHT22;12222;50.090;19.702;2022-07-18T02:37:45;8.90;99.90
24017;DHT22;12222;50.090;19.702;2022-07-18T02:43:06;8.90;99.90
24017;DHT22;12222;50.090;19.702;2022-07-18T02:48:26;9.10;99.90
24017;DHT22;12222;50.090;19.702;2022-07-18T02:53:47;9.10;99.90
24017;DHT22;12222;50.090;19.702;2022-07-18T02:59:07;9.00;99.90
24017;DHT22;12222;50.090;19.702;2022-07-18T03:04:28;9.20;99.90
24017;DHT22;12222;50.090;19.702;2022-07-18T03:09:48;9.40;99.90
24017;DHT22;12222;50.090;19.702;2022-07-18T03:15:09;9.50;99.90
24017;DHT22;12222;50.090;19.702;2022-07-18T03:20:31;9.50;99.90
24017;DHT22;12222;50.090;19.702;2022-07-18T03:25:51;9.60;99.90
24017;DHT22;12222;50.090;19.702;2022-07-18T03:31:12;9.60;99.90
24017;DHT22;12222;50.090;19.702;2022-07-18T03:36:33;9.90;99.90
24017;DHT22;12222;50.090;19.702;2022-07-18T03:41:54;10.20;99.90
24017;DHT22;12222;50.090;19.702;2022-07-18T03:47:14;10.80;99.90
24017;DHT22;12222;50.090;19.702;2022-07-18T03:52:35;10.40;99.90
24017;DHT22;12222;50.090;19.702;2022-07-18T03:57:56;10.40;99.90
24017;DHT22;12222;50.090;19.702;2022-07-18T04:03:17;10.60;99.90
24017;DHT22;12222;50.090;19.702;2022-07-18T04:08:39;10.80;99.90
24017;DHT22;12222;50.090;19.702;2022-07-18T04:14:00;11.10;99.90
24017;DHT22;12222;50.090;19.702;2022-07-18T04:19:21;11.90;99.90
24017;DHT22;12222;50.090;19.702;2022-07-18T04:24:44;12.90;99.90
24017;DHT22;12222;50.090;19.702;2022-07-18T04:30:13;14.10;99.90
24017;DHT22;12222;50.090;19.702;2022-07-18T04:35:34;14.10;99.90
24017;DHT22;12222;50.090;19.702;2022-07-18T04:40:56;14.30;99.90
24017;DHT22;12222;50.090;19.702;2022-07-18T04:46:17;14.60;99.90
24017;DHT22;12222;50.090;19.702;2022-07-18T04:51:38;15.10;99.90
24017;DHT22;12222;50.090;19.702;2022-07-18T04:56:58;16.60;99.90
24017;DHT22;12222;50.090;19.702;2022-07-18T05:02:19;18.80;99.90
24017;DHT22;12222;50.090;19.702;2022-07-18T05:07:40;18.90;99.90
24017;DHT22;12222;50.090;19.702;2022-07-18T05:13:01;18.70;99.90
24017;DHT22;12222;50.090;19.702;2022-07-18T05:18:22;19.20;99.90
24017;DHT22;12222;50.090;19.702;2022-07-18T05:23:42;19.80;99.90
24017;DHT22;12222;50.090;19.702;2022-07-18T05:29:03;19.80;99.70
24017;DHT22;12222;50.090;19.702;2022-07-18T05:34:23;19.20;99.90
24017;DHT22;12222;50.090;19.702;2022-07-18T05:39:44;17.90;99.90
24017;DHT22;12222;50.090;19.702;2022-07-18T05:45:05;17.50;99.90
24017;DHT22;12222;50.090;19.702;2022-07-18T05:50:26;17.60;99.90
24017;DHT22;12222;50.090;19.702;2022-07-18T05:55:46;17.40;99.90
24017;DHT22;12222;50.090;19.702;2022-07-18T06:01:07;17.20;99.90
24017;DHT22;12222;50.090;19.702;2022-07-18T06:06:28;17.60;99.90
24017;DHT22;12222;50.090;19.702;2022-07-18T06:11:50;17.20;99.90
24017;DHT22;12222;50.090;19.702;2022-07-18T06:17:10;17.30;99.90
24017;DHT22;12222;50.090;19.702;2022-07-18T06:22:31;17.80;99.90
24017;DHT22;12222;50.090;19.702;2022-07-18T06:27:52;18.30;99.90
24017;DHT22;12222;50.090;19.702;2022-07-18T06:33:12;20.30;99.90
24017;DHT22;12222;50.090;19.702;2022-07-18T06:39:11;21.90;96.30
24017;DHT22;12222;50.090;19.702;2022-07-18T06:53:31;22.70;90.30
24017;DHT22;12222;50.090;19.702;2022-07-18T07:18:04;19.80;93.90
24017;DHT22;12222;50.090;19.702;2022-07-18T07:23:48;19.50;96.50
24017;DHT22;12222;50.090;19.702;2022-07-18T08:10:21;20.80;85.00
24017;DHT22;12222;50.090;19.702;2022-07-18T08:17:19;21.50;84.60
24017;DHT22;12222;50.090;19.702;2022-07-18T08:23:53;22.70;83.30
24017;DHT22;12222;50.090;19.702;2022-07-18T08:35:53;27.40;64.40
24017;DHT22;12222;50.090;19.702;2022-07-18T08:41:16;28.60;58.00
24017;DHT22;12222;50.090;19.702;2022-07-18T08:46:39;30.50;52.80
24017;DHT22;12222;50.090;19.702;2022-07-18T08:52:00;31.50;51.50
24017;DHT22;12222;50.090;19.702;2022-07-18T08:57:22;30.70;50.80
24017;DHT22;12222;50.090;19.702;2022-07-18T09:02:43;29.90;50.70
24017;DHT22;12222;50.090;19.702;2022-07-18T09:13:36;30.40;51.00
24017;DHT22;12222;50.090;19.702;2022-07-18T09:18:56;30.50;50.50
24017;DHT22;12222;50.090;19.702;2022-07-18T09:24:17;30.00;50.50
24017;DHT22;12222;50.090;19.702;2022-07-18T09:30:05;29.40;51.00
24017;DHT22;12222;50.090;19.702;2022-07-18T09:43:18;25.20;59.90
24017;DHT22;12222;50.090;19.702;2022-07-18T09:49:12;25.60;60.10
24017;DHT22;12222;50.090;19.702;2022-07-18T10:01:36;25.90;58.00
24017;DHT22;12222;50.090;19.702;2022-07-18T10:07:28;26.00;60.40
24017;DHT22;12222;50.090;19.702;2022-07-18T10:14:20;25.60;61.70
24017;DHT22;12222;50.090;19.702;2022-07-18T10:40:29;26.20;59.90
24017;DHT22;12222;50.090;19.702;2022-07-18T10:53:22;25.70;60.50
24017;DHT22;12222;50.090;19.702;2022-07-18T10:58:43;26.10;60.20
24017;DHT22;12222;50.090;19.702;2022-07-18T11:04:31;26.50;61.30
24017;DHT22;12222;50.090;19.702;2022-07-18T11:09:53;26.40;61.20
24017;DHT22;12222;50.090;19.702;2022-07-18T11:15:16;26.60;59.40
24017;DHT22;12222;50.090;19.702;2022-07-18T11:20:39;26.70;56.60
24017;DHT22;12222;50.090;19.702;2022-07-18T11:26:00;26.40;60.90
24017;DHT22;12222;50.090;19.702;2022-07-18T11:31:20;25.90;61.60
24017;DHT22;12222;50.090;19.702;2022-07-18T11:36:43;26.10;61.80
24017;DHT22;12222;50.090;19.702;2022-07-18T11:42:04;25.70;62.80
24017;DHT22;12222;50.090;19.702;2022-07-18T11:47:25;25.30;65.80
24017;DHT22;12222;50.090;19.702;2022-07-18T11:52:45;26.30;59.20
24017;DHT22;12222;50.090;19.702;2022-07-18T11:58:16;26.50;64.80
24017;DHT22;12222;50.090;19.702;2022-07-18T12:03:39;26.90;59.50
24017;DHT22;12222;50.090;19.702;2022-07-18T12:09:01;26.90;58.20
24017;DHT22;12222;50.090;19.702;2022-07-18T12:14:24;26.90;58.30
24017;DHT22;12222;50.090;19.702;2022-07-18T12:19:45;27.40;56.50
24017;DHT22;12222;50.090;19.702;2022-07-18T12:25:05;26.90;57.30
24017;DHT22;12222;50.090;19.702;2022-07-18T12:30:26;26.70;58.90
24017;DHT22;12222;50.090;19.702;2022-07-18T12:35:57;27.00;59.00
24017;DHT22;12222;50.090;19.702;2022-07-18T12:41:35;27.00;59.70
24017;DHT22;12222;50.090;19.702;2022-07-18T12:46:58;25.60;58.20
24017;DHT22;12222;50.090;19.702;2022-07-18T12:53:04;26.40;62.60
24017;DHT22;12222;50.090;19.702;2022-07-18T13:13:10;25.40;60.90
24017;DHT22;12222;50.090;19.702;2022-07-18T13:25:44;25.90;60.20
24017;DHT22;12222;50.090;19.702;2022-07-18T13:46:14;26.90;58.70
24017;DHT22;12222;50.090;19.702;2022-07-18T14:06:01;26.30;60.00
24017;DHT22;12222;50.090;19.702;2022-07-18T14:26:00;25.70;61.10
24017;DHT22;12222;50.090;19.702;2022-07-18T14:53:39;25.20;63.60
24017;DHT22;12222;50.090;19.702;2022-07-18T16:09:17;24.70;63.70
24017;DHT22;12222;50.090;19.702;2022-07-18T16:15:17;25.00;63.40
24017;DHT22;12222;50.090;19.702;2022-07-18T17:19:40;23.60;73.70
24017;DHT22;12222;50.090;19.702;2022-07-18T17:48:26;21.60;99.90
24017;DHT22;12222;50.090;19.702;2022-07-18T17:55:00;21.20;99.90
24017;DHT22;12222;50.090;19.702;2022-07-18T18:08:34;21.20;99.90
24017;DHT22;12222;50.090;19.702;2022-07-18T18:31:02;19.80;99.90
24017;DHT22;12222;50.090;19.702;2022-07-18T20:33:59;15.60;99.90
24017;DHT22;12222;50.090;19.702;2022-07-18T21:11:21;15.00;99.90
24017;DHT22;12222;50.090;19.702;2022-07-18T21:31:32;14.70;99.90
24017;DHT22;12222;50.090;19.702;2022-07-18T21:44:14;14.40;99.90
24017;DHT22;12222;50.090;19.702;2022-07-18T21:50:25;13.90;99.90
24017;DHT22;12222;50.090;19.702;2022-07-18T22:03:25;13.90;99.90
24017;DHT22;12222;50.090;19.702;2022-07-18T22:08:47;13.80;99.90
24017;DHT22;12222;50.090;19.702;2022-07-18T22:14:45;13.70;99.90
24017;DHT22;12222;50.090;19.702;2022-07-18T22:20:17;13.80;99.90
24017;DHT22;12222;50.090;19.702;2022-07-18T22:26:48;13.80;99.90
24017;DHT22;12222;50.090;19.702;2022-07-18T22:32:15;13.70;99.90
24017;DHT22;12222;50.090;19.702;2022-07-18T22:37:43;13.60;99.90
24017;DHT22;12222;50.090;19.702;2022-07-18T22:43:25;13.60;99.90
24017;DHT22;12222;50.090;19.702;2022-07-18T22:48:48;13.70;99.90
24017;DHT22;12222;50.090;19.702;2022-07-18T22:54:08;13.60;99.90
24017;DHT22;12222;50.090;19.702;2022-07-18T22:59:29;13.40;99.90
24017;DHT22;12222;50.090;19.702;2022-07-18T23:04:50;13.20;99.90
24017;DHT22;12222;50.090;19.702;2022-07-18T23:10:10;13.30;99.90
24017;DHT22;12222;50.090;19.702;2022-07-18T23:15:32;13.40;99.90
24017;DHT22;12222;50.090;19.702;2022-07-18T23:20:53;13.20;99.90
24017;DHT22;12222;50.090;19.702;2022-07-18T23:26:14;13.00;99.90
24017;DHT22;12222;50.090;19.702;2022-07-18T23:31:34;13.00;99.90
24017;DHT22;12222;50.090;19.702;2022-07-18T23:36:56;13.00;99.90
24017;DHT22;12222;50.090;19.702;2022-07-18T23:42:17;13.00;99.90
24017;DHT22;12222;50.090;19.702;2022-07-18T23:47:37;13.00;99.90
24017;DHT22;12222;50.090;19.702;2022-07-18T23:52:58;12.90;99.90
24017;DHT22;12222;50.090;19.702;2022-07-18T23:58:20;12.80;99.90
